Surface observations / UK / EGMC

Quebec | Canada | USA | France | UK | Europe | Elsewhere

Display: Info & Location for EGMC | Help decoding METAR

EGMC SOUTHEND-ON-SEA -- UK
Raw surface observations for station EGMC
EGMC 312350Z 19012KT CAVOK 16/11 Q1015=
EGMC 312250Z 20010KT CAVOK 16/11 Q1015=
EGMC 312150Z 19010KT CAVOK 17/12 Q1015=
EGMC 312120Z 20010KT CAVOK 17/11 Q1015=
EGMC 312050Z 19013KT CAVOK 17/11 Q1015=
EGMC 311920Z 19011KT CAVOK 17/11 Q1015=
EGMC 311850Z 18011G22KT CAVOK 19/11 Q1015=
EGMC 311820Z 18010KT CAVOK 19/10 Q1016=
EGMC 311750Z 18009KT CAVOK 18/10 Q1016=
EGMC 311720Z 18013KT CAVOK 18/10 Q1016=
EGMC 311650Z 17011KT CAVOK 17/11 Q1016=
EGMC 311620Z 17013KT CAVOK 18/12 Q1016=
EGMC 311550Z 17012KT CAVOK 19/12 Q1016=
EGMC 311520Z 17010KT CAVOK 20/13 Q1016=
EGMC 311450Z 17009KT CAVOK 20/13 Q1016=
EGMC 311420Z 17012KT CAVOK 21/13 Q1016=
EGMC 311320Z 16006KT CAVOK 22/14 Q1017=
EGMC 311250Z 16008KT CAVOK 21/14 Q1017=
EGMC 311220Z 17010KT CAVOK 20/13 Q1017=
EGMC 311150Z 18010KT CAVOK 20/14 Q1018=
EGMC 311120Z 18010KT CAVOK 20/14 Q1018=
EGMC 311050Z 17007KT CAVOK 19/14 Q1018=
EGMC 311020Z 17009KT CAVOK 18/14 Q1018=
EGMC 310950Z 18008KT CAVOK 17/14 Q1018=
EGMC 310920Z 18007KT CAVOK 17/13 Q1018=
EGMC 310850Z 19005KT CAVOK 16/13 Q1018=
EGMC 310820Z 19007KT CAVOK 15/13 Q1018=
EGMC 310750Z 18008KT CAVOK 15/13 Q1018=
EGMC 310720Z 20007KT CAVOK 14/12 Q1018=
EGMC 310650Z 20007KT CAVOK 15/13 Q1018=
EGMC 310620Z 20008KT CAVOK 15/13 Q1018=
EGMC 310550Z 21007KT CAVOK 15/13 Q1018=
EGMC 310520Z 19006KT CAVOK 14/12 Q1018=
EGMC 010520Z 17007KT CAVOK 14/12 Q1014=
EGMC 010450Z 18006KT CAVOK 14/12 Q1014=
EGMC 010350Z 16005KT CAVOK 14/12 Q1014=
EGMC 010150Z 17008KT CAVOK 15/12 Q1015=
EGMC 010050Z 19012KT CAVOK 16/11 Q1015=